Archival Weather

Tokyo Intl

Tokyo, Japan (RJTT)

Report from: Friday, September 22, 2023 9:30 AM JST
Current time: Sunday, February 25, 2024 1:27 AM JST

Current weather – Weather history – Daily summaries
Weather forecast

Present weatherVCSH
Temperature27.0°C (80.6°F)
Heat index30.1°C (86.2°F)
Dew point24.0°C (75.2°F)
Winds 6 kts (3.1 m/s, 6.9 mph) Vrb
Winds variableWinds variable from South-Southwest (210°) to Northwest (310°)
Visibility6.2 mi. (10 km)
Clouds Few clouds 1,500 ft. (457 m)
Ceiling: Broken clouds 6,000 ft. (1,829 m)
Altimeter29.83 in.Hg (1010 mB)
Relative humidity84 %
Density altitude1,892 ft. (577 m)
Remarks No significant changes expected in the next two hours
Flight conditions Visual Meteorological Conditions
Raw dataRJTT 220030Z 25006KT 210V310 9999 VCSH FEW015 BKN060 27/24 Q1010 NOSIG
An error has occurred. This application may no longer respond until reloaded. Reload 🗙